sensor_id;sensor_type;location;lat;lon;timestamp;P1;durP1;ratioP1;P2;durP2;ratioP2
84778;SDS011;75010;50.866;20.620;2024-02-26T00:00:10;27;;;23;;
84778;SDS011;75010;50.866;20.620;2024-02-26T00:10:13;27;;;23;;
84778;SDS011;75010;50.866;20.620;2024-02-26T00:20:05;23;;;21;;
84778;SDS011;75010;50.866;20.620;2024-02-26T00:30:05;23;;;21;;
84778;SDS011;75010;50.866;20.620;2024-02-26T00:40:03;29;;;24;;
84778;SDS011;75010;50.866;20.620;2024-02-26T00:50:04;22;;;20;;
84778;SDS011;75010;50.866;20.620;2024-02-26T01:00:18;22;;;20;;
84778;SDS011;75010;50.866;20.620;2024-02-26T01:10:09;24;;;21;;
84778;SDS011;75010;50.866;20.620;2024-02-26T01:20:11;24;;;21;;
84778;SDS011;75010;50.866;20.620;2024-02-26T01:30:08;30;;;24;;
84778;SDS011;75010;50.866;20.620;2024-02-26T01:40:08;30;;;24;;
84778;SDS011;75010;50.866;20.620;2024-02-26T01:50:12;26;;;23;;
84778;SDS011;75010;50.866;20.620;2024-02-26T02:00:17;26;;;23;;
84778;SDS011;75010;50.866;20.620;2024-02-26T02:10:09;30;;;26;;
84778;SDS011;75010;50.866;20.620;2024-02-26T02:20:26;25;;;24;;
84778;SDS011;75010;50.866;20.620;2024-02-26T02:30:06;25;;;24;;
84778;SDS011;75010;50.866;20.620;2024-02-26T02:40:06;28;;;24;;
84778;SDS011;75010;50.866;20.620;2024-02-26T02:50:02;28;;;24;;
84778;SDS011;75010;50.866;20.620;2024-02-26T03:00:05;27;;;24;;
84778;SDS011;75010;50.866;20.620;2024-02-26T03:10:08;27;;;24;;
84778;SDS011;75010;50.866;20.620;2024-02-26T03:20:13;26;;;23;;
84778;SDS011;75010;50.866;20.620;2024-02-26T03:30:11;26;;;23;;
84778;SDS011;75010;50.866;20.620;2024-02-26T03:40:13;26;;;24;;
84778;SDS011;75010;50.866;20.620;2024-02-26T03:50:10;32;;;26;;
84778;SDS011;75010;50.866;20.620;2024-02-26T04:00:06;32;;;26;;
84778;SDS011;75010;50.866;20.620;2024-02-26T04:10:17;28;;;23;;
84778;SDS011;75010;50.866;20.620;2024-02-26T04:20:16;28;;;23;;
84778;SDS011;75010;50.866;20.620;2024-02-26T04:30:09;27;;;25;;
84778;SDS011;75010;50.866;20.620;2024-02-26T04:40:08;27;;;25;;
84778;SDS011;75010;50.866;20.620;2024-02-26T04:50:09;27;;;21;;
84778;SDS011;75010;50.866;20.620;2024-02-26T05:00:12;27;;;21;;
84778;SDS011;75010;50.866;20.620;2024-02-26T05:10:11;30;;;26;;
84778;SDS011;75010;50.866;20.620;2024-02-26T05:20:11;29;;;26;;
84778;SDS011;75010;50.866;20.620;2024-02-26T05:30:13;29;;;26;;
84778;SDS011;75010;50.866;20.620;2024-02-26T05:40:10;31;;;26;;
84778;SDS011;75010;50.866;20.620;2024-02-26T05:50:07;31;;;26;;
84778;SDS011;75010;50.866;20.620;2024-02-26T06:00:05;25;;;22;;
84778;SDS011;75010;50.866;20.620;2024-02-26T06:10:10;25;;;22;;
84778;SDS011;75010;50.866;20.620;2024-02-26T06:20:07;29;;;23;;
84778;SDS011;75010;50.866;20.620;2024-02-26T06:30:06;29;;;23;;
84778;SDS011;75010;50.866;20.620;2024-02-26T06:40:12;26;;;22;;
84778;SDS011;75010;50.866;20.620;2024-02-26T06:50:05;20;;;17;;
84778;SDS011;75010;50.866;20.620;2024-02-26T07:00:19;20;;;17;;
84778;SDS011;75010;50.866;20.620;2024-02-26T07:10:04;19;;;16;;
84778;SDS011;75010;50.866;20.620;2024-02-26T07:20:12;19;;;16;;
84778;SDS011;75010;50.866;20.620;2024-02-26T07:30:04;20;;;16;;
84778;SDS011;75010;50.866;20.620;2024-02-26T07:40:14;20;;;16;;
84778;SDS011;75010;50.866;20.620;2024-02-26T07:50:04;18;;;14;;
84778;SDS011;75010;50.866;20.620;2024-02-26T08:00:21;18;;;14;;
84778;SDS011;75010;50.866;20.620;2024-02-26T08:10:09;18;;;16;;
84778;SDS011;75010;50.866;20.620;2024-02-26T08:20:13;18;;;16;;
84778;SDS011;75010;50.866;20.620;2024-02-26T08:30:14;11;;;11;;
84778;SDS011;75010;50.866;20.620;2024-02-26T08:40:05;12;;;11;;
84778;SDS011;75010;50.866;20.620;2024-02-26T08:50:13;12;;;11;;
84778;SDS011;75010;50.866;20.620;2024-02-26T09:00:21;9;;;8;;
84778;SDS011;75010;50.866;20.620;2024-02-26T09:10:02;9;;;8;;
84778;SDS011;75010;50.866;20.620;2024-02-26T09:20:15;8;;;7;;
84778;SDS011;75010;50.866;20.620;2024-02-26T09:30:09;8;;;7;;
84778;SDS011;75010;50.866;20.620;2024-02-26T09:40:12;8;;;7;;
84778;SDS011;75010;50.866;20.620;2024-02-26T09:50:09;5;;;4;;
84778;SDS011;75010;50.866;20.620;2024-02-26T10:00:34;5;;;4;;
84778;SDS011;75010;50.866;20.620;2024-02-26T10:10:14;6;;;4;;
84778;SDS011;75010;50.866;20.620;2024-02-26T10:20:27;6;;;4;;
84778;SDS011;75010;50.866;20.620;2024-02-26T10:30:05;6;;;6;;
84778;SDS011;75010;50.866;20.620;2024-02-26T10:40:17;6;;;6;;
84778;SDS011;75010;50.866;20.620;2024-02-26T10:50:08;5;;;4;;
84778;SDS011;75010;50.866;20.620;2024-02-26T11:00:05;5;;;4;;
84778;SDS011;75010;50.866;20.620;2024-02-26T11:10:17;6;;;6;;
84778;SDS011;75010;50.866;20.620;2024-02-26T11:20:18;5;;;5;;
84778;SDS011;75010;50.866;20.620;2024-02-26T11:30:20;5;;;5;;
84778;SDS011;75010;50.866;20.620;2024-02-26T11:40:15;6;;;5;;
84778;SDS011;75010;50.866;20.620;2024-02-26T11:50:35;6;;;5;;
84778;SDS011;75010;50.866;20.620;2024-02-26T12:00:24;6;;;6;;
84778;SDS011;75010;50.866;20.620;2024-02-26T12:10:47;6;;;6;;
84778;SDS011;75010;50.866;20.620;2024-02-26T12:20:12;10;;;10;;
84778;SDS011;75010;50.866;20.620;2024-02-26T12:30:05;10;;;10;;
84778;SDS011;75010;50.866;20.620;2024-02-26T12:40:12;9;;;8;;
84778;SDS011;75010;50.866;20.620;2024-02-26T12:50:08;12;;;10;;
84778;SDS011;75010;50.866;20.620;2024-02-26T13:00:06;12;;;10;;
84778;SDS011;75010;50.866;20.620;2024-02-26T13:10:09;14;;;13;;
84778;SDS011;75010;50.866;20.620;2024-02-26T13:20:12;14;;;13;;
84778;SDS011;75010;50.866;20.620;2024-02-26T13:30:03;13;;;11;;
84778;SDS011;75010;50.866;20.620;2024-02-26T13:40:14;13;;;11;;
84778;SDS011;75010;50.866;20.620;2024-02-26T13:50:08;16;;;14;;
84778;SDS011;75010;50.866;20.620;2024-02-26T14:00:14;16;;;14;;
84778;SDS011;75010;50.866;20.620;2024-02-26T14:30:08;18;;;16;;
84778;SDS011;75010;50.866;20.620;2024-02-26T14:40:03;18;;;16;;
84778;SDS011;75010;50.866;20.620;2024-02-26T14:50:13;18;;;16;;
84778;SDS011;75010;50.866;20.620;2024-02-26T15:00:18;18;;;17;;
84778;SDS011;75010;50.866;20.620;2024-02-26T15:10:02;18;;;17;;
84778;SDS011;75010;50.866;20.620;2024-02-26T16:10:10;21;;;20;;
84778;SDS011;75010;50.866;20.620;2024-02-26T16:20:16;21;;;20;;
84778;SDS011;75010;50.866;20.620;2024-02-26T17:10:08;27;;;24;;
84778;SDS011;75010;50.866;20.620;2024-02-26T17:30:09;28;;;26;;
84778;SDS011;75010;50.866;20.620;2024-02-26T17:40:09;28;;;26;;
84778;SDS011;75010;50.866;20.620;2024-02-26T18:50:09;33;;;28;;
84778;SDS011;75010;50.866;20.620;2024-02-26T19:00:13;33;;;28;;
84778;SDS011;75010;50.866;20.620;2024-02-26T19:10:29;31;;;28;;
84778;SDS011;75010;50.866;20.620;2024-02-26T19:20:10;29;;;25;;
84778;SDS011;75010;50.866;20.620;2024-02-26T19:30:17;29;;;25;;
84778;SDS011;75010;50.866;20.620;2024-02-26T19:40:15;33;;;28;;
84778;SDS011;75010;50.866;20.620;2024-02-26T19:50:11;33;;;28;;
84778;SDS011;75010;50.866;20.620;2024-02-26T20:00:12;27;;;24;;
84778;SDS011;75010;50.866;20.620;2024-02-26T20:10:06;27;;;24;;
84778;SDS011;75010;50.866;20.620;2024-02-26T20:20:08;22;;;20;;
84778;SDS011;75010;50.866;20.620;2024-02-26T20:30:10;22;;;20;;
84778;SDS011;75010;50.866;20.620;2024-02-26T20:40:13;20;;;19;;
84778;SDS011;75010;50.866;20.620;2024-02-26T20:50:09;26;;;23;;
84778;SDS011;75010;50.866;20.620;2024-02-26T21:00:20;26;;;23;;
84778;SDS011;75010;50.866;20.620;2024-02-26T21:10:02;35;;;30;;
84778;SDS011;75010;50.866;20.620;2024-02-26T21:20:10;35;;;30;;
84778;SDS011;75010;50.866;20.620;2024-02-26T21:30:12;35;;;29;;
84778;SDS011;75010;50.866;20.620;2024-02-26T21:40:16;35;;;29;;
84778;SDS011;75010;50.866;20.620;2024-02-26T21:50:10;34;;;29;;
84778;SDS011;75010;50.866;20.620;2024-02-26T22:00:06;34;;;29;;
84778;SDS011;75010;50.866;20.620;2024-02-26T22:10:12;20;;;18;;
84778;SDS011;75010;50.866;20.620;2024-02-26T22:20:02;20;;;18;;
84778;SDS011;75010;50.866;20.620;2024-02-26T22:30:02;22;;;20;;
84778;SDS011;75010;50.866;20.620;2024-02-26T22:40:06;25;;;22;;
84778;SDS011;75010;50.866;20.620;2024-02-26T22:50:10;25;;;22;;
84778;SDS011;75010;50.866;20.620;2024-02-26T23:00:32;32;;;27;;
84778;SDS011;75010;50.866;20.620;2024-02-26T23:10:10;32;;;27;;
84778;SDS011;75010;50.866;20.620;2024-02-26T23:20:14;27;;;25;;
84778;SDS011;75010;50.866;20.620;2024-02-26T23:30:02;27;;;25;;
84778;SDS011;75010;50.866;20.620;2024-02-26T23:40:01;25;;;23;;
84778;SDS011;75010;50.866;20.620;2024-02-26T23:50:02;22;;;20;;
